createdAt,value
2023-05-18T00:02:21.334Z,8.65
2023-05-18T00:04:48.652Z,6.60
2023-05-18T00:07:15.836Z,7.00
2023-05-18T00:09:42.940Z,7.55
2023-05-18T00:12:10.214Z,7.43
2023-05-18T00:14:37.562Z,12.05
2023-05-18T00:17:04.803Z,7.45
2023-05-18T00:19:31.926Z,10.50
2023-05-18T00:22:01.600Z,9.13
2023-05-18T00:24:29.542Z,7.80
2023-05-18T00:26:57.022Z,7.18
2023-05-18T00:29:24.117Z,6.13
2023-05-18T00:31:51.352Z,6.63
2023-05-18T00:34:19.090Z,6.75
2023-05-18T00:36:46.412Z,10.05
2023-05-18T00:39:14.031Z,13.73
2023-05-18T00:41:41.370Z,7.80
2023-05-18T00:44:08.612Z,6.65
2023-05-18T00:46:35.757Z,6.13
2023-05-18T00:49:03.112Z,7.38
2023-05-18T00:51:30.511Z,7.35
2023-05-18T00:53:57.661Z,6.97
2023-05-18T00:56:27.303Z,8.80
2023-05-18T00:58:57.673Z,6.73
2023-05-18T01:01:29.722Z,10.93
2023-05-18T01:03:58.180Z,13.02
2023-05-18T01:06:27.991Z,9.95
2023-05-18T01:08:55.150Z,11.45
2023-05-18T01:11:46.244Z,6.95
2023-05-18T01:14:18.213Z,8.77
2023-05-18T01:17:13.306Z,10.82
2023-05-18T01:19:55.110Z,7.57
2023-05-18T01:22:39.122Z,8.98
2023-05-18T01:25:19.725Z,9.23
2023-05-18T01:30:18.401Z,11.02
2023-05-18T01:32:48.552Z,9.77
2023-05-18T01:35:15.694Z,9.15
2023-05-18T01:37:42.769Z,8.43
2023-05-18T01:40:09.909Z,10.32
2023-05-18T01:42:39.996Z,9.50
2023-05-18T01:45:13.579Z,7.90
2023-05-18T01:47:41.004Z,7.38
2023-05-18T01:50:16.518Z,8.63
2023-05-18T01:52:46.287Z,12.60
2023-05-18T01:55:13.774Z,8.37
2023-05-18T01:57:41.761Z,9.43
2023-05-18T02:00:10.423Z,11.90
2023-05-18T02:02:37.463Z,9.93
2023-05-18T02:05:05.887Z,10.07
2023-05-18T02:07:33.001Z,13.20
2023-05-18T02:09:59.998Z,10.52
2023-05-18T02:12:27.364Z,12.43
2023-05-18T02:14:55.540Z,9.93
2023-05-18T02:17:26.330Z,15.93
2023-05-18T02:19:53.966Z,8.02
2023-05-18T02:22:20.967Z,11.25
2023-05-18T02:24:48.119Z,13.25
2023-05-18T02:27:15.588Z,9.05
2023-05-18T02:29:43.187Z,11.07
2023-05-18T02:32:10.348Z,9.15
2023-05-18T02:34:38.518Z,9.85
2023-05-18T02:37:05.696Z,10.55
2023-05-18T02:39:34.110Z,11.23
2023-05-18T02:42:01.341Z,9.80
2023-05-18T02:44:28.722Z,11.50
2023-05-18T02:46:55.798Z,10.43
2023-05-18T02:49:22.840Z,11.38
2023-05-18T02:51:49.882Z,8.82
2023-05-18T02:54:16.931Z,9.30
2023-05-18T02:56:44.013Z,9.23
2023-05-18T02:59:11.739Z,10.30
2023-05-18T03:01:41.338Z,7.80
2023-05-18T03:04:08.440Z,7.80
2023-05-18T03:06:36.268Z,7.50
2023-05-18T03:09:03.279Z,7.05
2023-05-18T03:11:30.297Z,6.78
2023-05-18T03:13:57.385Z,7.47
2023-05-18T03:16:28.894Z,9.55
2023-05-18T03:18:59.262Z,6.25
2023-05-18T03:24:01.324Z,8.07
2023-05-18T03:26:31.202Z,6.75
2023-05-18T03:28:58.767Z,10.52
2023-05-18T03:31:26.364Z,8.75
2023-05-18T03:33:53.530Z,10.18
2023-05-18T03:36:22.725Z,10.65
2023-05-18T03:38:49.882Z,6.65
2023-05-18T03:41:16.927Z,9.45
2023-05-18T03:43:43.973Z,7.82
2023-05-18T03:46:11.236Z,8.40
2023-05-18T03:48:38.360Z,7.13
2023-05-18T03:51:06.207Z,8.85
2023-05-18T03:53:34.058Z,8.57
2023-05-18T03:56:01.437Z,6.88
2023-05-18T03:58:29.419Z,9.75
2023-05-18T04:00:56.562Z,8.07
2023-05-18T04:03:25.262Z,11.93
2023-05-18T04:05:53.516Z,8.63
2023-05-18T04:08:20.934Z,10.52
2023-05-18T04:10:47.987Z,8.57
2023-05-18T04:13:15.115Z,9.65
2023-05-18T04:15:42.431Z,11.02
2023-05-18T04:18:10.641Z,9.85
2023-05-18T04:20:41.886Z,8.40
2023-05-18T04:23:10.446Z,8.98
2023-05-18T04:25:39.600Z,8.80
2023-05-18T04:28:06.707Z,8.18
2023-05-18T04:30:35.634Z,9.75
2023-05-18T04:33:04.402Z,8.32
2023-05-18T04:35:32.240Z,8.68
2023-05-18T04:37:59.595Z,8.23
2023-05-18T04:40:26.757Z,10.75
2023-05-18T04:42:53.914Z,9.50
2023-05-18T04:45:22.438Z,10.60
2023-05-18T04:47:54.322Z,7.70
2023-05-18T04:50:23.923Z,15.30
2023-05-18T04:52:51.768Z,8.75
2023-05-18T04:55:26.148Z,7.88
2023-05-18T04:57:57.039Z,7.53
2023-05-18T05:02:52.333Z,8.05
2023-05-18T05:05:19.662Z,7.25
2023-05-18T05:07:51.790Z,9.05
2023-05-18T05:10:20.177Z,7.10
2023-05-18T05:12:49.338Z,7.43
2023-05-18T05:15:17.135Z,10.93
2023-05-18T05:17:44.445Z,8.13
2023-05-18T05:20:11.745Z,8.20
2023-05-18T05:22:39.268Z,6.65
2023-05-18T05:25:06.807Z,9.65
2023-05-18T05:27:34.156Z,10.82
2023-05-18T05:30:01.383Z,8.90
2023-05-18T05:32:28.454Z,9.40
2023-05-18T05:34:55.625Z,8.20
2023-05-18T05:37:22.745Z,9.15
2023-05-18T05:39:49.787Z,7.70
2023-05-18T05:42:16.934Z,11.25
2023-05-18T05:44:44.112Z,8.57
2023-05-18T05:47:11.270Z,8.05
2023-05-18T05:49:38.457Z,10.07
2023-05-18T05:52:05.898Z,9.65
2023-05-18T05:54:33.124Z,13.30
2023-05-18T05:57:00.635Z,9.25
2023-05-18T05:59:27.686Z,11.77
2023-05-18T06:01:54.793Z,8.57
2023-05-18T06:04:21.989Z,11.35
2023-05-18T06:06:49.594Z,9.40
2023-05-18T06:09:16.684Z,9.98
2023-05-18T06:11:43.802Z,10.73
2023-05-18T06:14:10.939Z,14.25
2023-05-18T06:16:38.456Z,14.02
2023-05-18T06:19:05.928Z,10.23
2023-05-18T06:21:33.343Z,11.75
2023-05-18T06:24:01.549Z,11.00
2023-05-18T06:26:28.904Z,11.88
2023-05-18T06:28:56.713Z,9.52
2023-05-18T06:31:23.969Z,8.55
2023-05-18T06:33:51.186Z,9.43
2023-05-18T06:36:18.274Z,11.85
2023-05-18T06:38:51.003Z,9.95
2023-05-18T06:41:18.135Z,10.32
2023-05-18T06:43:45.294Z,10.18
2023-05-18T06:46:21.297Z,12.63
2023-05-18T06:48:48.805Z,11.38
2023-05-18T06:51:19.366Z,10.95
2023-05-18T06:56:13.949Z,11.43
2023-05-18T06:58:41.856Z,13.52
2023-05-18T07:01:10.168Z,13.63
2023-05-18T07:03:37.625Z,10.90
2023-05-18T07:06:05.388Z,7.90
2023-05-18T07:08:32.688Z,11.40
2023-05-18T07:11:02.654Z,9.25
2023-05-18T07:13:33.095Z,9.23
2023-05-18T07:16:00.180Z,8.15
2023-05-18T07:18:27.407Z,8.88
2023-05-18T07:20:54.444Z,9.32
2023-05-18T07:23:22.651Z,8.43
2023-05-18T07:25:49.738Z,7.45
2023-05-18T07:28:17.248Z,10.23
2023-05-18T07:30:44.384Z,7.75
2023-05-18T07:33:12.031Z,9.45
2023-05-18T07:35:39.385Z,8.43
2023-05-18T07:38:06.848Z,9.77
2023-05-18T07:40:34.092Z,7.43
2023-05-18T07:43:01.595Z,10.38
2023-05-18T07:45:29.116Z,8.27
2023-05-18T07:47:56.698Z,7.20
2023-05-18T07:50:24.581Z,9.55
2023-05-18T07:52:51.678Z,7.03
2023-05-18T07:55:19.499Z,7.00
2023-05-18T07:58:07.041Z,9.68
2023-05-18T08:00:34.525Z,8.60
2023-05-18T08:03:02.034Z,7.50
2023-05-18T08:05:29.829Z,9.75
2023-05-18T08:07:57.566Z,7.18
2023-05-18T08:10:25.102Z,8.93
2023-05-18T08:13:43.887Z,7.40
2023-05-18T08:16:34.817Z,10.52
2023-05-18T08:19:02.287Z,9.18
2023-05-18T08:21:29.995Z,9.13
2023-05-18T08:23:57.157Z,9.20
2023-05-18T08:26:24.763Z,8.15
2023-05-18T08:28:52.272Z,11.13
2023-05-18T08:31:19.392Z,7.45
2023-05-18T08:33:46.622Z,7.57
2023-05-18T08:36:13.842Z,8.30
2023-05-18T08:38:41.122Z,7.70
2023-05-18T08:41:19.215Z,11.27
2023-05-18T08:44:51.057Z,13.45
2023-05-18T08:47:18.369Z,9.27
2023-05-18T08:49:46.381Z,11.82
2023-05-18T08:52:16.011Z,8.85
2023-05-18T08:54:43.041Z,9.00
2023-05-18T08:57:10.298Z,9.25
2023-05-18T08:59:41.074Z,19.10
2023-05-18T09:02:08.458Z,19.80
2023-05-18T09:04:35.884Z,20.30
2023-05-18T09:07:03.964Z,11.48
2023-05-18T09:09:31.516Z,14.95
2023-05-18T09:11:58.644Z,10.50
2023-05-18T09:14:27.112Z,7.15
2023-05-18T09:16:54.428Z,7.55
2023-05-18T09:19:21.746Z,7.47
2023-05-18T09:21:49.068Z,8.43
2023-05-18T09:24:16.177Z,8.10
2023-05-18T09:26:43.269Z,8.18
2023-05-18T09:29:22.785Z,8.90
2023-05-18T09:31:49.984Z,9.52
2023-05-18T09:34:19.512Z,11.55
2023-05-18T09:36:57.924Z,11.05
2023-05-18T09:39:25.078Z,9.70
2023-05-18T09:41:57.556Z,12.25
2023-05-18T09:44:37.260Z,11.43
2023-05-18T09:47:09.839Z,9.13
2023-05-18T09:49:37.818Z,10.18
2023-05-18T09:52:09.251Z,10.70
2023-05-18T09:54:37.419Z,10.57
2023-05-18T09:59:37.001Z,10.75
2023-05-18T10:02:12.248Z,12.00
2023-05-18T10:04:40.604Z,11.40
2023-05-18T10:07:15.295Z,11.23
2023-05-18T10:09:43.359Z,8.50
2023-05-18T10:12:12.600Z,9.77
2023-05-18T10:14:42.240Z,9.30
2023-05-18T10:17:16.598Z,8.18
2023-05-18T10:19:44.487Z,7.72
2023-05-18T10:22:11.792Z,8.05
2023-05-18T10:24:43.533Z,8.57
2023-05-18T10:27:11.308Z,7.40
2023-05-18T10:29:38.395Z,8.60
2023-05-18T10:32:07.925Z,6.85
2023-05-18T10:34:35.275Z,9.17
2023-05-18T10:37:05.581Z,9.52
2023-05-18T10:39:36.654Z,9.10
2023-05-18T10:42:03.927Z,9.88
2023-05-18T10:44:31.114Z,7.57
2023-05-18T10:46:58.394Z,7.68
2023-05-18T10:49:26.308Z,6.25
2023-05-18T10:51:55.282Z,8.13
2023-05-18T10:54:25.504Z,8.68
2023-05-18T10:56:53.634Z,7.10
2023-05-18T10:59:23.721Z,7.03
2023-05-18T11:02:17.875Z,7.00
2023-05-18T11:04:48.299Z,8.00
2023-05-18T11:07:15.807Z,5.57
2023-05-18T11:09:43.740Z,7.78
2023-05-18T11:12:14.734Z,6.97
2023-05-18T11:14:52.348Z,11.32
2023-05-18T11:17:20.907Z,8.27
2023-05-18T11:20:06.478Z,6.80
2023-05-18T11:22:46.808Z,7.82
2023-05-18T11:25:35.125Z,7.47
2023-05-18T11:28:05.010Z,7.18
2023-05-18T11:30:36.650Z,9.55
2023-05-18T11:33:17.947Z,8.77
2023-05-18T11:36:04.424Z,11.27
2023-05-18T11:38:54.401Z,14.10
2023-05-18T11:41:36.853Z,13.02
2023-05-18T11:44:13.016Z,9.73
2023-05-18T11:46:59.504Z,10.82
2023-05-18T11:49:28.225Z,11.52
2023-05-18T11:52:07.456Z,8.35
2023-05-18T11:54:41.625Z,12.02
2023-05-18T11:57:08.921Z,8.93
2023-05-18T11:59:47.318Z,9.68
2023-05-18T12:02:20.498Z,7.50
2023-05-18T12:04:50.900Z,6.75
2023-05-18T12:07:19.715Z,5.93
2023-05-18T12:09:47.615Z,8.73
2023-05-18T12:12:20.477Z,7.82
2023-05-18T12:15:08.700Z,7.63
2023-05-18T12:17:45.555Z,9.23
2023-05-18T12:20:13.464Z,7.35
2023-05-18T12:22:41.482Z,6.40
2023-05-18T12:25:09.263Z,6.60
2023-05-18T12:27:59.896Z,6.88
2023-05-18T12:33:04.893Z,11.38
2023-05-18T12:35:33.197Z,10.07
2023-05-18T12:38:01.917Z,10.40
2023-05-18T12:40:38.819Z,9.77
2023-05-18T12:45:51.132Z,20.48
2023-05-18T12:48:18.765Z,12.48
2023-05-18T12:50:49.308Z,8.95
2023-05-18T12:53:17.063Z,8.88
2023-05-18T12:55:48.184Z,7.75
2023-05-18T12:58:37.803Z,6.43
2023-05-18T13:03:40.566Z,14.13
2023-05-18T13:06:08.764Z,12.70
2023-05-18T13:08:36.399Z,9.18
2023-05-18T13:11:13.445Z,9.63
2023-05-18T13:17:03.759Z,8.93
2023-05-18T13:19:31.817Z,7.43
2023-05-18T13:21:59.044Z,6.90
2023-05-18T13:24:26.214Z,5.35
2023-05-18T13:26:53.431Z,8.55
2023-05-18T13:30:08.137Z,7.55
2023-05-18T13:32:35.706Z,6.75
2023-05-18T13:35:02.988Z,5.95
2023-05-18T13:37:30.279Z,7.25
2023-05-18T13:39:57.490Z,9.25
2023-05-18T13:42:27.290Z,6.45
2023-05-18T13:45:16.042Z,7.20
2023-05-18T13:48:09.868Z,7.93
2023-05-18T13:50:37.985Z,6.70
2023-05-18T13:53:05.388Z,7.97
2023-05-18T13:55:33.490Z,5.45
2023-05-18T13:58:01.131Z,6.93
2023-05-18T14:01:13.631Z,5.78
2023-05-18T14:03:41.254Z,7.35
2023-05-18T14:06:08.644Z,8.48
2023-05-18T14:08:36.055Z,6.70
2023-05-18T14:11:03.150Z,7.65
2023-05-18T14:13:30.404Z,7.05
2023-05-18T14:15:57.787Z,7.00
2023-05-18T14:18:24.882Z,6.85
2023-05-18T14:20:52.353Z,8.10
2023-05-18T14:23:19.617Z,5.60
2023-05-18T14:25:46.708Z,5.72
2023-05-18T14:28:14.073Z,6.03
2023-05-18T14:30:46.263Z,5.65
2023-05-18T14:33:13.446Z,6.47
2023-05-18T14:35:40.785Z,4.53
2023-05-18T14:38:10.649Z,6.30
2023-05-18T14:40:37.886Z,5.43
2023-05-18T14:43:05.004Z,9.73
2023-05-18T14:45:32.181Z,10.00
2023-05-18T14:47:59.294Z,6.55
2023-05-18T14:50:26.310Z,8.95
2023-05-18T14:52:55.023Z,15.23
2023-05-18T14:55:22.211Z,9.85
2023-05-18T14:57:49.329Z,8.07
2023-05-18T15:00:17.751Z,9.18
2023-05-18T15:02:45.007Z,5.53
2023-05-18T15:05:12.881Z,8.63
2023-05-18T15:07:39.945Z,8.48
2023-05-18T15:10:07.754Z,8.00
2023-05-18T15:12:34.807Z,6.75
2023-05-18T15:15:02.180Z,8.15
2023-05-18T15:17:29.247Z,7.45
2023-05-18T15:19:56.503Z,9.70
2023-05-18T15:22:23.653Z,10.30
2023-05-18T15:24:51.163Z,9.52
2023-05-18T15:27:18.354Z,7.65
2023-05-18T15:29:46.863Z,10.32
2023-05-18T15:32:16.380Z,7.50
2023-05-18T15:34:43.430Z,7.78
2023-05-18T15:37:10.961Z,8.48
2023-05-18T15:39:38.530Z,7.53
2023-05-18T15:42:06.062Z,8.77
2023-05-18T15:44:33.310Z,9.32
2023-05-18T15:47:00.989Z,8.75
2023-05-18T15:49:28.165Z,8.77
2023-05-18T15:51:58.120Z,11.77
2023-05-18T15:54:28.255Z,8.55
2023-05-18T15:56:56.052Z,9.50
2023-05-18T15:59:23.176Z,9.00
2023-05-18T16:01:50.326Z,8.55
2023-05-18T16:04:17.697Z,10.57
2023-05-18T16:06:44.952Z,10.68
2023-05-18T16:09:12.433Z,14.65
2023-05-18T16:11:39.811Z,15.68
2023-05-18T16:14:07.196Z,15.52
2023-05-18T16:16:34.602Z,16.42
2023-05-18T16:19:02.550Z,33.50
2023-05-18T16:21:29.738Z,21.52
2023-05-18T16:23:56.969Z,19.27
2023-05-18T16:26:24.041Z,13.38
2023-05-18T16:28:51.430Z,8.77
2023-05-18T16:31:18.524Z,7.97
2023-05-18T16:33:45.930Z,8.20
2023-05-18T16:36:13.105Z,7.88
2023-05-18T16:38:40.125Z,8.60
2023-05-18T16:41:07.293Z,7.28
2023-05-18T16:43:35.539Z,9.75
2023-05-18T16:46:05.284Z,9.63
2023-05-18T16:48:32.306Z,11.07
2023-05-18T16:50:59.601Z,11.30
2023-05-18T16:53:26.956Z,10.20
2023-05-18T16:55:56.773Z,9.60
2023-05-18T16:58:24.076Z,13.63
2023-05-18T17:00:51.162Z,17.75
2023-05-18T17:03:18.356Z,14.13
2023-05-18T17:05:46.191Z,12.90
2023-05-18T17:08:13.457Z,11.00
2023-05-18T17:10:41.249Z,12.55
2023-05-18T17:13:08.543Z,12.20
2023-05-18T17:15:36.360Z,12.05
2023-05-18T17:18:03.625Z,10.43
2023-05-18T17:20:31.118Z,9.80
2023-05-18T17:23:00.427Z,17.85
2023-05-18T17:27:55.848Z,13.18
2023-05-18T17:30:22.867Z,11.43
2023-05-18T17:32:51.027Z,13.00
2023-05-18T17:35:18.367Z,18.55
2023-05-18T17:37:46.637Z,13.05
2023-05-18T17:40:14.014Z,13.85
2023-05-18T17:42:41.246Z,16.10
2023-05-18T17:45:09.014Z,14.30
2023-05-18T17:47:38.651Z,15.50
2023-05-18T17:50:06.332Z,13.33
2023-05-18T17:52:33.577Z,16.58
2023-05-18T17:55:02.716Z,16.52
2023-05-18T17:57:30.360Z,16.75
2023-05-18T17:59:59.583Z,18.70
2023-05-18T18:02:26.808Z,21.40
2023-05-18T18:04:54.064Z,17.33
2023-05-18T18:07:22.215Z,15.93
2023-05-18T18:09:49.511Z,19.08
2023-05-18T18:12:17.198Z,22.08
2023-05-18T18:14:47.656Z,16.10
2023-05-18T18:17:14.816Z,13.07
2023-05-18T18:19:41.979Z,12.60
2023-05-18T18:22:09.108Z,12.07
2023-05-18T18:24:36.480Z,18.48
2023-05-18T18:27:04.498Z,15.15
2023-05-18T18:29:31.823Z,17.67
2023-05-18T18:31:59.169Z,16.48
2023-05-18T18:34:26.577Z,26.10
2023-05-18T18:36:54.083Z,26.63
2023-05-18T18:39:21.464Z,18.73
2023-05-18T18:41:48.598Z,19.50
2023-05-18T18:44:15.699Z,22.90
2023-05-18T18:46:42.878Z,19.67
2023-05-18T18:49:10.046Z,18.08
2023-05-18T18:51:37.396Z,15.65
2023-05-18T18:54:06.639Z,18.88
2023-05-18T18:56:33.797Z,16.50
2023-05-18T18:59:01.027Z,18.10
2023-05-18T19:01:28.419Z,16.77
2023-05-18T19:03:55.884Z,16.30
2023-05-18T19:06:24.394Z,18.85
2023-05-18T19:08:53.581Z,16.23
2023-05-18T19:11:23.605Z,15.63
2023-05-18T19:13:50.954Z,15.80
2023-05-18T19:16:18.814Z,15.50
2023-05-18T19:18:47.416Z,20.50
2023-05-18T19:21:14.642Z,20.65
2023-05-18T19:23:41.913Z,20.50
2023-05-18T19:26:09.251Z,22.92
2023-05-18T19:28:36.541Z,22.00
2023-05-18T19:31:04.447Z,22.25
2023-05-18T19:33:31.892Z,21.45
2023-05-18T19:35:59.226Z,18.00
2023-05-18T19:38:26.494Z,17.98
2023-05-18T19:40:53.586Z,21.60
2023-05-18T19:43:20.762Z,21.60
2023-05-18T19:45:50.231Z,18.17
2023-05-18T19:48:18.302Z,22.17
2023-05-18T19:50:45.685Z,16.88
2023-05-18T19:53:12.918Z,23.17
2023-05-18T19:55:40.109Z,20.42
2023-05-18T19:58:07.278Z,21.10
2023-05-18T20:00:34.745Z,15.15
2023-05-18T20:03:03.963Z,17.33
2023-05-18T20:05:31.513Z,17.83
2023-05-18T20:07:59.173Z,15.20
2023-05-18T20:10:26.640Z,17.65
2023-05-18T20:12:53.871Z,18.58
2023-05-18T20:15:21.064Z,20.98
2023-05-18T20:17:48.317Z,21.77
2023-05-18T20:20:17.081Z,21.98
2023-05-18T20:22:44.259Z,19.40
2023-05-18T20:25:12.260Z,17.55
2023-05-18T20:27:39.470Z,20.67
2023-05-18T20:30:07.504Z,22.00
2023-05-18T20:32:34.715Z,19.70
2023-05-18T20:35:02.692Z,19.77
2023-05-18T20:37:30.507Z,17.73
2023-05-18T20:39:58.748Z,17.50
2023-05-18T20:42:32.115Z,19.05
2023-05-18T20:45:02.670Z,22.15
2023-05-18T20:47:32.216Z,22.35
2023-05-18T20:50:01.833Z,20.17
2023-05-18T20:52:29.507Z,23.17
2023-05-18T20:54:56.763Z,21.08
2023-05-18T20:57:24.118Z,20.13
2023-05-18T20:59:51.695Z,22.80
2023-05-18T21:02:19.802Z,25.27
2023-05-18T21:04:48.258Z,26.05
2023-05-18T21:07:16.801Z,19.95
2023-05-18T21:09:43.913Z,21.45
2023-05-18T21:12:11.391Z,19.25
2023-05-18T21:14:38.716Z,21.13
2023-05-18T21:17:06.571Z,19.65
2023-05-18T21:19:33.905Z,20.92
2023-05-18T21:22:01.135Z,23.00
2023-05-18T21:24:28.265Z,24.15
2023-05-18T21:26:56.067Z,22.00
2023-05-18T21:29:23.346Z,24.60
2023-05-18T21:31:50.745Z,27.70
2023-05-18T21:34:18.168Z,25.33
2023-05-18T21:36:46.675Z,26.55
2023-05-18T21:39:13.829Z,23.77
2023-05-18T21:41:42.573Z,26.95
2023-05-18T21:44:09.957Z,24.60
2023-05-18T21:46:37.335Z,22.35
2023-05-18T21:49:05.373Z,23.58
2023-05-18T21:51:32.628Z,22.08
2023-05-18T21:54:00.188Z,22.20
2023-05-18T21:56:27.794Z,22.02
2023-05-18T21:58:55.301Z,24.35
2023-05-18T22:01:23.645Z,20.85
2023-05-18T22:03:51.234Z,28.40
2023-05-18T22:06:18.392Z,19.50
2023-05-18T22:08:46.395Z,22.85
2023-05-18T22:11:13.726Z,23.95
2023-05-18T22:13:40.918Z,24.15
2023-05-18T22:16:08.055Z,25.05
2023-05-18T22:18:35.169Z,28.80
2023-05-18T22:21:02.265Z,23.83
2023-05-18T22:23:29.292Z,25.27
2023-05-18T22:25:56.333Z,22.90
2023-05-18T22:28:23.490Z,22.40
2023-05-18T22:30:51.744Z,24.60
2023-05-18T22:33:18.968Z,24.48
2023-05-18T22:35:46.151Z,23.42
2023-05-18T22:38:13.250Z,21.30
2023-05-18T22:40:40.672Z,24.70
2023-05-18T22:43:07.862Z,22.83
2023-05-18T22:45:35.009Z,22.20
2023-05-18T22:48:02.692Z,23.77
2023-05-18T22:50:30.177Z,25.02
2023-05-18T22:52:57.486Z,25.85
2023-05-18T22:55:24.563Z,26.88
2023-05-18T22:57:51.844Z,22.15
2023-05-18T23:00:19.335Z,21.45
2023-05-18T23:02:46.621Z,22.92
2023-05-18T23:05:14.128Z,22.33
2023-05-18T23:07:41.971Z,23.27
2023-05-18T23:10:13.070Z,36.45
2023-05-18T23:12:41.807Z,27.48
2023-05-18T23:15:09.827Z,24.00
2023-05-18T23:17:39.776Z,25.27
2023-05-18T23:20:07.755Z,26.17
2023-05-18T23:22:35.345Z,26.63
2023-05-18T23:25:04.746Z,30.10
2023-05-18T23:27:34.687Z,29.63
2023-05-18T23:30:02.518Z,30.25
2023-05-18T23:32:30.537Z,34.42
2023-05-18T23:34:59.911Z,27.23
2023-05-18T23:37:38.273Z,25.13
2023-05-18T23:40:15.424Z,30.30
2023-05-18T23:42:43.500Z,28.63
2023-05-18T23:45:11.166Z,32.60
2023-05-18T23:47:38.663Z,28.25
2023-05-18T23:50:11.240Z,28.15
2023-05-18T23:52:38.600Z,29.10
2023-05-18T23:55:06.294Z,25.27
2023-05-18T23:57:33.692Z,29.20
